sensor_id;sensor_type;location;lat;lon;timestamp;P1;durP1;ratioP1;P2;durP2;ratioP2
11044;SDS011;9786;42.714;23.272;2024-03-07T00:01:28;28.97;;;24.57;;
11044;SDS011;9786;42.714;23.272;2024-03-07T00:03:59;32.90;;;27.30;;
11044;SDS011;9786;42.714;23.272;2024-03-07T00:06:30;34.17;;;30.47;;
11044;SDS011;9786;42.714;23.272;2024-03-07T00:09:00;38.10;;;33.77;;
11044;SDS011;9786;42.714;23.272;2024-03-07T00:11:30;38.20;;;33.90;;
11044;SDS011;9786;42.714;23.272;2024-03-07T00:14:03;40.03;;;32.97;;
11044;SDS011;9786;42.714;23.272;2024-03-07T00:16:37;39.43;;;35.10;;
11044;SDS011;9786;42.714;23.272;2024-03-07T00:19:07;37.50;;;32.40;;
11044;SDS011;9786;42.714;23.272;2024-03-07T00:21:37;38.13;;;31.73;;
11044;SDS011;9786;42.714;23.272;2024-03-07T00:24:09;41.00;;;35.00;;
11044;SDS011;9786;42.714;23.272;2024-03-07T00:26:43;42.07;;;35.40;;
11044;SDS011;9786;42.714;23.272;2024-03-07T00:29:13;38.37;;;31.47;;
11044;SDS011;9786;42.714;23.272;2024-03-07T00:31:45;37.30;;;30.13;;
11044;SDS011;9786;42.714;23.272;2024-03-07T00:34:15;33.17;;;28.70;;
11044;SDS011;9786;42.714;23.272;2024-03-07T00:36:51;34.83;;;31.13;;
11044;SDS011;9786;42.714;23.272;2024-03-07T00:39:23;34.10;;;28.00;;
11044;SDS011;9786;42.714;23.272;2024-03-07T00:41:52;33.63;;;29.87;;
11044;SDS011;9786;42.714;23.272;2024-03-07T00:44:21;32.23;;;28.93;;
11044;SDS011;9786;42.714;23.272;2024-03-07T00:46:52;31.30;;;27.90;;
11044;SDS011;9786;42.714;23.272;2024-03-07T00:49:24;32.53;;;26.03;;
11044;SDS011;9786;42.714;23.272;2024-03-07T00:51:53;30.50;;;27.23;;
11044;SDS011;9786;42.714;23.272;2024-03-07T00:54:22;29.37;;;26.33;;
11044;SDS011;9786;42.714;23.272;2024-03-07T00:56:52;31.40;;;28.07;;
11044;SDS011;9786;42.714;23.272;2024-03-07T00:59:22;32.47;;;28.73;;
11044;SDS011;9786;42.714;23.272;2024-03-07T01:01:54;32.53;;;27.73;;
11044;SDS011;9786;42.714;23.272;2024-03-07T01:04:23;33.13;;;28.27;;
11044;SDS011;9786;42.714;23.272;2024-03-07T01:06:58;33.33;;;29.83;;
11044;SDS011;9786;42.714;23.272;2024-03-07T01:09:27;32.37;;;28.50;;
11044;SDS011;9786;42.714;23.272;2024-03-07T01:11:57;35.90;;;29.27;;
11044;SDS011;9786;42.714;23.272;2024-03-07T01:14:27;33.53;;;28.47;;
11044;SDS011;9786;42.714;23.272;2024-03-07T01:16:59;32.97;;;27.47;;
11044;SDS011;9786;42.714;23.272;2024-03-07T01:19:29;31.80;;;28.00;;
11044;SDS011;9786;42.714;23.272;2024-03-07T01:22:00;30.90;;;27.03;;
11044;SDS011;9786;42.714;23.272;2024-03-07T01:24:29;36.30;;;27.23;;
11044;SDS011;9786;42.714;23.272;2024-03-07T01:27:00;30.07;;;26.77;;
11044;SDS011;9786;42.714;23.272;2024-03-07T01:29:49;30.63;;;26.73;;
11044;SDS011;9786;42.714;23.272;2024-03-07T01:32:20;32.43;;;28.47;;
11044;SDS011;9786;42.714;23.272;2024-03-07T01:34:50;35.10;;;30.93;;
11044;SDS011;9786;42.714;23.272;2024-03-07T01:37:20;29.77;;;26.57;;
11044;SDS011;9786;42.714;23.272;2024-03-07T01:39:49;30.57;;;25.73;;
11044;SDS011;9786;42.714;23.272;2024-03-07T01:42:19;29.90;;;26.67;;
11044;SDS011;9786;42.714;23.272;2024-03-07T01:44:48;33.43;;;28.93;;
11044;SDS011;9786;42.714;23.272;2024-03-07T01:47:19;28.87;;;25.70;;
11044;SDS011;9786;42.714;23.272;2024-03-07T01:49:50;26.20;;;23.30;;
11044;SDS011;9786;42.714;23.272;2024-03-07T01:52:20;25.10;;;22.13;;
11044;SDS011;9786;42.714;23.272;2024-03-07T01:54:49;29.07;;;24.17;;
11044;SDS011;9786;42.714;23.272;2024-03-07T01:57:19;26.97;;;23.37;;
11044;SDS011;9786;42.714;23.272;2024-03-07T01:59:49;25.70;;;22.37;;
11044;SDS011;9786;42.714;23.272;2024-03-07T02:02:18;25.00;;;21.70;;
11044;SDS011;9786;42.714;23.272;2024-03-07T02:04:48;25.10;;;21.37;;
11044;SDS011;9786;42.714;23.272;2024-03-07T02:07:18;26.30;;;22.03;;
11044;SDS011;9786;42.714;23.272;2024-03-07T02:09:47;26.60;;;23.67;;
11044;SDS011;9786;42.714;23.272;2024-03-07T02:12:17;26.57;;;23.77;;
11044;SDS011;9786;42.714;23.272;2024-03-07T02:14:46;27.80;;;24.00;;
11044;SDS011;9786;42.714;23.272;2024-03-07T02:17:16;27.07;;;24.13;;
11044;SDS011;9786;42.714;23.272;2024-03-07T02:19:49;24.70;;;21.87;;
11044;SDS011;9786;42.714;23.272;2024-03-07T02:22:21;25.57;;;22.50;;
11044;SDS011;9786;42.714;23.272;2024-03-07T02:24:52;26.77;;;23.70;;
11044;SDS011;9786;42.714;23.272;2024-03-07T02:27:21;27.70;;;23.20;;
11044;SDS011;9786;42.714;23.272;2024-03-07T02:29:50;29.03;;;24.53;;
11044;SDS011;9786;42.714;23.272;2024-03-07T02:32:20;27.63;;;23.00;;
11044;SDS011;9786;42.714;23.272;2024-03-07T02:34:50;27.77;;;23.03;;
11044;SDS011;9786;42.714;23.272;2024-03-07T02:37:21;28.17;;;23.10;;
11044;SDS011;9786;42.714;23.272;2024-03-07T02:39:51;26.43;;;23.50;;
11044;SDS011;9786;42.714;23.272;2024-03-07T02:42:21;26.40;;;22.73;;
11044;SDS011;9786;42.714;23.272;2024-03-07T02:44:53;27.07;;;21.17;;
11044;SDS011;9786;42.714;23.272;2024-03-07T02:47:23;25.23;;;21.43;;
11044;SDS011;9786;42.714;23.272;2024-03-07T02:49:52;25.57;;;22.77;;
11044;SDS011;9786;42.714;23.272;2024-03-07T02:52:23;28.60;;;23.57;;
11044;SDS011;9786;42.714;23.272;2024-03-07T02:54:52;24.93;;;21.67;;
11044;SDS011;9786;42.714;23.272;2024-03-07T02:57:22;26.53;;;23.43;;
11044;SDS011;9786;42.714;23.272;2024-03-07T02:59:51;20.00;;;17.43;;
11044;SDS011;9786;42.714;23.272;2024-03-07T03:02:21;23.00;;;20.50;;
11044;SDS011;9786;42.714;23.272;2024-03-07T03:04:51;26.77;;;23.83;;
11044;SDS011;9786;42.714;23.272;2024-03-07T03:07:20;24.53;;;20.50;;
11044;SDS011;9786;42.714;23.272;2024-03-07T03:09:52;26.10;;;23.30;;
11044;SDS011;9786;42.714;23.272;2024-03-07T03:12:22;29.93;;;24.57;;
11044;SDS011;9786;42.714;23.272;2024-03-07T03:14:51;32.93;;;24.93;;
11044;SDS011;9786;42.714;23.272;2024-03-07T03:17:21;26.10;;;23.03;;
11044;SDS011;9786;42.714;23.272;2024-03-07T03:19:50;31.73;;;24.03;;
11044;SDS011;9786;42.714;23.272;2024-03-07T03:22:20;21.87;;;18.23;;
11044;SDS011;9786;42.714;23.272;2024-03-07T03:24:49;22.53;;;19.93;;
11044;SDS011;9786;42.714;23.272;2024-03-07T03:27:24;18.83;;;16.60;;
11044;SDS011;9786;42.714;23.272;2024-03-07T03:29:53;19.97;;;17.73;;
11044;SDS011;9786;42.714;23.272;2024-03-07T03:32:23;26.03;;;21.60;;
11044;SDS011;9786;42.714;23.272;2024-03-07T03:34:52;22.73;;;19.27;;
11044;SDS011;9786;42.714;23.272;2024-03-07T03:37:22;25.17;;;19.80;;
11044;SDS011;9786;42.714;23.272;2024-03-07T03:39:51;25.87;;;21.57;;
11044;SDS011;9786;42.714;23.272;2024-03-07T03:42:21;22.07;;;19.70;;
11044;SDS011;9786;42.714;23.272;2024-03-07T03:44:53;21.07;;;17.67;;
11044;SDS011;9786;42.714;23.272;2024-03-07T03:47:22;17.43;;;14.40;;
11044;SDS011;9786;42.714;23.272;2024-03-07T03:49:52;16.40;;;14.27;;
11044;SDS011;9786;42.714;23.272;2024-03-07T03:52:21;14.07;;;11.70;;
11044;SDS011;9786;42.714;23.272;2024-03-07T03:54:50;13.17;;;9.97;;
11044;SDS011;9786;42.714;23.272;2024-03-07T03:57:21;11.43;;;9.63;;
11044;SDS011;9786;42.714;23.272;2024-03-07T03:59:51;7.97;;;7.17;;
11044;SDS011;9786;42.714;23.272;2024-03-07T04:02:22;6.77;;;6.17;;
11044;SDS011;9786;42.714;23.272;2024-03-07T04:04:52;6.10;;;5.60;;
11044;SDS011;9786;42.714;23.272;2024-03-07T04:07:22;5.80;;;5.13;;
11044;SDS011;9786;42.714;23.272;2024-03-07T04:09:52;5.90;;;5.37;;
11044;SDS011;9786;42.714;23.272;2024-03-07T04:12:21;5.87;;;5.20;;
11044;SDS011;9786;42.714;23.272;2024-03-07T04:14:53;5.40;;;4.90;;
11044;SDS011;9786;42.714;23.272;2024-03-07T04:17:23;6.03;;;5.43;;
11044;SDS011;9786;42.714;23.272;2024-03-07T04:19:52;5.73;;;5.23;;
11044;SDS011;9786;42.714;23.272;2024-03-07T04:22:22;5.67;;;4.70;;
11044;SDS011;9786;42.714;23.272;2024-03-07T04:24:53;5.60;;;4.47;;
11044;SDS011;9786;42.714;23.272;2024-03-07T04:27:23;4.07;;;3.67;;
11044;SDS011;9786;42.714;23.272;2024-03-07T04:29:55;4.43;;;4.03;;
11044;SDS011;9786;42.714;23.272;2024-03-07T04:32:25;4.13;;;3.73;;
11044;SDS011;9786;42.714;23.272;2024-03-07T04:34:55;4.33;;;3.93;;
11044;SDS011;9786;42.714;23.272;2024-03-07T04:37:25;4.90;;;4.20;;
11044;SDS011;9786;42.714;23.272;2024-03-07T04:39:54;4.90;;;3.60;;
11044;SDS011;9786;42.714;23.272;2024-03-07T04:42:23;3.57;;;3.27;;
11044;SDS011;9786;42.714;23.272;2024-03-07T04:44:55;4.83;;;4.33;;
11044;SDS011;9786;42.714;23.272;2024-03-07T04:47:24;4.03;;;3.63;;
11044;SDS011;9786;42.714;23.272;2024-03-07T04:49:55;4.37;;;3.93;;
11044;SDS011;9786;42.714;23.272;2024-03-07T04:52:24;4.10;;;3.63;;
11044;SDS011;9786;42.714;23.272;2024-03-07T04:54:56;7.40;;;5.70;;
11044;SDS011;9786;42.714;23.272;2024-03-07T04:57:26;3.50;;;3.20;;
11044;SDS011;9786;42.714;23.272;2024-03-07T04:59:57;4.13;;;3.73;;
11044;SDS011;9786;42.714;23.272;2024-03-07T05:02:26;3.77;;;3.47;;
11044;SDS011;9786;42.714;23.272;2024-03-07T05:04:56;3.90;;;3.50;;
11044;SDS011;9786;42.714;23.272;2024-03-07T05:07:26;3.80;;;3.50;;
11044;SDS011;9786;42.714;23.272;2024-03-07T05:09:56;3.93;;;3.63;;
11044;SDS011;9786;42.714;23.272;2024-03-07T05:12:25;3.40;;;3.10;;
11044;SDS011;9786;42.714;23.272;2024-03-07T05:14:59;4.10;;;3.80;;
11044;SDS011;9786;42.714;23.272;2024-03-07T05:17:31;6.47;;;4.63;;
11044;SDS011;9786;42.714;23.272;2024-03-07T05:20:03;5.00;;;4.60;;
11044;SDS011;9786;42.714;23.272;2024-03-07T05:22:38;5.60;;;5.07;;
11044;SDS011;9786;42.714;23.272;2024-03-07T05:25:12;5.87;;;5.37;;
11044;SDS011;9786;42.714;23.272;2024-03-07T05:27:44;5.87;;;5.37;;
11044;SDS011;9786;42.714;23.272;2024-03-07T05:30:15;5.70;;;5.20;;
11044;SDS011;9786;42.714;23.272;2024-03-07T05:32:44;5.30;;;4.80;;
11044;SDS011;9786;42.714;23.272;2024-03-07T05:35:15;5.13;;;4.67;;
11044;SDS011;9786;42.714;23.272;2024-03-07T05:37:48;6.33;;;5.77;;
11044;SDS011;9786;42.714;23.272;2024-03-07T05:40:19;6.90;;;6.30;;
11044;SDS011;9786;42.714;23.272;2024-03-07T05:42:48;6.97;;;6.37;;
11044;SDS011;9786;42.714;23.272;2024-03-07T05:45:20;7.80;;;7.10;;
11044;SDS011;9786;42.714;23.272;2024-03-07T05:47:50;8.97;;;8.07;;
11044;SDS011;9786;42.714;23.272;2024-03-07T05:50:20;8.50;;;7.67;;
11044;SDS011;9786;42.714;23.272;2024-03-07T05:52:50;8.53;;;7.73;;
11044;SDS011;9786;42.714;23.272;2024-03-07T05:55:19;9.27;;;8.37;;
11044;SDS011;9786;42.714;23.272;2024-03-07T05:57:50;8.20;;;7.50;;
11044;SDS011;9786;42.714;23.272;2024-03-07T06:00:21;9.13;;;7.60;;
11044;SDS011;9786;42.714;23.272;2024-03-07T06:02:56;7.97;;;7.10;;
11044;SDS011;9786;42.714;23.272;2024-03-07T06:05:26;7.80;;;7.00;;
11044;SDS011;9786;42.714;23.272;2024-03-07T06:07:55;8.43;;;7.63;;
11044;SDS011;9786;42.714;23.272;2024-03-07T06:10:25;8.07;;;7.27;;
11044;SDS011;9786;42.714;23.272;2024-03-07T06:12:55;8.67;;;7.87;;
11044;SDS011;9786;42.714;23.272;2024-03-07T06:15:39;8.13;;;7.33;;
11044;SDS011;9786;42.714;23.272;2024-03-07T06:18:09;7.93;;;7.07;;
11044;SDS011;9786;42.714;23.272;2024-03-07T06:20:41;7.63;;;6.93;;
11044;SDS011;9786;42.714;23.272;2024-03-07T06:23:11;7.23;;;6.53;;
11044;SDS011;9786;42.714;23.272;2024-03-07T06:25:40;11.40;;;10.20;;
11044;SDS011;9786;42.714;23.272;2024-03-07T06:28:15;8.00;;;6.97;;
11044;SDS011;9786;42.714;23.272;2024-03-07T06:30:46;7.77;;;6.87;;
11044;SDS011;9786;42.714;23.272;2024-03-07T06:33:16;8.67;;;7.70;;
11044;SDS011;9786;42.714;23.272;2024-03-07T06:35:49;15.40;;;13.77;;
11044;SDS011;9786;42.714;23.272;2024-03-07T06:38:19;10.87;;;9.87;;
11044;SDS011;9786;42.714;23.272;2024-03-07T06:40:48;9.70;;;8.80;;
11044;SDS011;9786;42.714;23.272;2024-03-07T06:43:19;8.17;;;7.47;;
11044;SDS011;9786;42.714;23.272;2024-03-07T06:45:50;9.07;;;8.27;;
11044;SDS011;9786;42.714;23.272;2024-03-07T06:48:19;8.00;;;7.30;;
11044;SDS011;9786;42.714;23.272;2024-03-07T06:50:49;8.00;;;7.30;;
11044;SDS011;9786;42.714;23.272;2024-03-07T06:53:20;8.43;;;7.60;;
11044;SDS011;9786;42.714;23.272;2024-03-07T06:55:53;7.67;;;7.07;;
11044;SDS011;9786;42.714;23.272;2024-03-07T06:58:23;7.10;;;6.40;;
11044;SDS011;9786;42.714;23.272;2024-03-07T07:00:58;9.93;;;8.70;;
11044;SDS011;9786;42.714;23.272;2024-03-07T07:03:28;8.10;;;7.30;;
11044;SDS011;9786;42.714;23.272;2024-03-07T07:05:57;9.47;;;8.47;;
11044;SDS011;9786;42.714;23.272;2024-03-07T07:08:28;6.73;;;6.13;;
11044;SDS011;9786;42.714;23.272;2024-03-07T07:10:58;8.43;;;6.57;;
11044;SDS011;9786;42.714;23.272;2024-03-07T07:13:28;7.77;;;7.07;;
11044;SDS011;9786;42.714;23.272;2024-03-07T07:15:59;6.30;;;5.60;;
11044;SDS011;9786;42.714;23.272;2024-03-07T07:18:29;7.57;;;6.77;;
11044;SDS011;9786;42.714;23.272;2024-03-07T07:20:58;6.93;;;6.33;;
11044;SDS011;9786;42.714;23.272;2024-03-07T07:23:31;8.73;;;7.83;;
11044;SDS011;9786;42.714;23.272;2024-03-07T07:26:00;7.50;;;6.50;;
11044;SDS011;9786;42.714;23.272;2024-03-07T07:28:29;6.77;;;6.17;;
11044;SDS011;9786;42.714;23.272;2024-03-07T07:31:00;5.77;;;5.17;;
11044;SDS011;9786;42.714;23.272;2024-03-07T07:33:33;5.50;;;5.00;;
11044;SDS011;9786;42.714;23.272;2024-03-07T07:36:02;7.23;;;5.50;;
11044;SDS011;9786;42.714;23.272;2024-03-07T07:38:33;6.60;;;6.00;;
11044;SDS011;9786;42.714;23.272;2024-03-07T07:41:03;5.43;;;4.93;;
11044;SDS011;9786;42.714;23.272;2024-03-07T07:43:34;7.20;;;6.13;;
11044;SDS011;9786;42.714;23.272;2024-03-07T07:46:11;6.97;;;6.27;;
11044;SDS011;9786;42.714;23.272;2024-03-07T07:48:39;6.63;;;5.30;;
11044;SDS011;9786;42.714;23.272;2024-03-07T07:51:08;6.17;;;5.57;;
11044;SDS011;9786;42.714;23.272;2024-03-07T07:53:38;5.57;;;5.17;;
11044;SDS011;9786;42.714;23.272;2024-03-07T07:56:09;6.77;;;6.00;;
11044;SDS011;9786;42.714;23.272;2024-03-07T07:58:38;6.40;;;5.80;;
11044;SDS011;9786;42.714;23.272;2024-03-07T08:01:07;5.63;;;5.10;;
11044;SDS011;9786;42.714;23.272;2024-03-07T08:03:39;6.90;;;6.20;;
11044;SDS011;9786;42.714;23.272;2024-03-07T08:06:10;7.77;;;6.00;;
11044;SDS011;9786;42.714;23.272;2024-03-07T08:08:40;8.13;;;6.20;;
11044;SDS011;9786;42.714;23.272;2024-03-07T08:11:09;6.47;;;5.87;;
11044;SDS011;9786;42.714;23.272;2024-03-07T08:13:40;6.87;;;5.23;;
11044;SDS011;9786;42.714;23.272;2024-03-07T08:16:11;8.30;;;6.30;;
11044;SDS011;9786;42.714;23.272;2024-03-07T08:18:42;6.27;;;5.77;;
11044;SDS011;9786;42.714;23.272;2024-03-07T08:21:11;6.13;;;5.53;;
11044;SDS011;9786;42.714;23.272;2024-03-07T08:23:40;6.33;;;5.73;;
11044;SDS011;9786;42.714;23.272;2024-03-07T08:26:09;5.80;;;5.30;;
11044;SDS011;9786;42.714;23.272;2024-03-07T08:28:39;6.63;;;6.03;;
11044;SDS011;9786;42.714;23.272;2024-03-07T08:31:08;6.23;;;5.63;;
11044;SDS011;9786;42.714;23.272;2024-03-07T08:33:38;5.87;;;5.37;;
11044;SDS011;9786;42.714;23.272;2024-03-07T08:36:09;6.70;;;6.00;;
11044;SDS011;9786;42.714;23.272;2024-03-07T08:38:39;6.33;;;5.80;;
11044;SDS011;9786;42.714;23.272;2024-03-07T08:41:08;7.00;;;6.40;;
11044;SDS011;9786;42.714;23.272;2024-03-07T08:43:41;7.40;;;6.70;;
11044;SDS011;9786;42.714;23.272;2024-03-07T08:46:10;6.83;;;6.23;;
11044;SDS011;9786;42.714;23.272;2024-03-07T08:48:39;7.30;;;6.70;;
11044;SDS011;9786;42.714;23.272;2024-03-07T08:51:10;8.87;;;6.50;;
11044;SDS011;9786;42.714;23.272;2024-03-07T08:53:40;5.60;;;5.10;;
11044;SDS011;9786;42.714;23.272;2024-03-07T08:56:09;5.50;;;5.00;;
11044;SDS011;9786;42.714;23.272;2024-03-07T08:58:41;5.97;;;5.47;;
11044;SDS011;9786;42.714;23.272;2024-03-07T09:01:10;5.13;;;4.73;;
11044;SDS011;9786;42.714;23.272;2024-03-07T09:03:40;4.10;;;3.73;;
11044;SDS011;9786;42.714;23.272;2024-03-07T09:06:12;4.73;;;3.70;;
11044;SDS011;9786;42.714;23.272;2024-03-07T09:08:43;4.37;;;3.97;;
11044;SDS011;9786;42.714;23.272;2024-03-07T09:11:14;4.53;;;3.80;;
11044;SDS011;9786;42.714;23.272;2024-03-07T09:13:44;5.10;;;4.70;;
11044;SDS011;9786;42.714;23.272;2024-03-07T09:16:13;5.17;;;4.53;;
11044;SDS011;9786;42.714;23.272;2024-03-07T09:18:43;4.57;;;4.17;;
11044;SDS011;9786;42.714;23.272;2024-03-07T09:21:17;5.27;;;4.77;;
11044;SDS011;9786;42.714;23.272;2024-03-07T09:23:47;5.27;;;4.40;;
11044;SDS011;9786;42.714;23.272;2024-03-07T09:26:17;4.80;;;4.40;;
11044;SDS011;9786;42.714;23.272;2024-03-07T09:28:51;4.80;;;4.40;;
11044;SDS011;9786;42.714;23.272;2024-03-07T09:31:21;6.03;;;4.90;;
11044;SDS011;9786;42.714;23.272;2024-03-07T09:33:51;5.73;;;5.17;;
11044;SDS011;9786;42.714;23.272;2024-03-07T09:36:25;5.33;;;4.90;;
11044;SDS011;9786;42.714;23.272;2024-03-07T09:38:54;5.53;;;5.03;;
11044;SDS011;9786;42.714;23.272;2024-03-07T09:41:26;6.13;;;4.60;;
11044;SDS011;9786;42.714;23.272;2024-03-07T09:43:56;5.73;;;5.23;;
11044;SDS011;9786;42.714;23.272;2024-03-07T09:46:28;7.30;;;6.03;;
11044;SDS011;9786;42.714;23.272;2024-03-07T09:48:58;6.90;;;6.27;;
11044;SDS011;9786;42.714;23.272;2024-03-07T09:51:31;7.57;;;6.20;;
11044;SDS011;9786;42.714;23.272;2024-03-07T09:54:01;5.10;;;4.70;;
11044;SDS011;9786;42.714;23.272;2024-03-07T09:56:31;7.30;;;6.00;;
11044;SDS011;9786;42.714;23.272;2024-03-07T09:59:04;6.33;;;5.70;;
11044;SDS011;9786;42.714;23.272;2024-03-07T10:01:34;6.23;;;5.63;;
11044;SDS011;9786;42.714;23.272;2024-03-07T10:04:05;6.00;;;5.43;;
11044;SDS011;9786;42.714;23.272;2024-03-07T10:06:40;7.07;;;6.47;;
11044;SDS011;9786;42.714;23.272;2024-03-07T10:09:12;6.30;;;5.70;;
11044;SDS011;9786;42.714;23.272;2024-03-07T10:11:43;7.17;;;6.13;;
11044;SDS011;9786;42.714;23.272;2024-03-07T10:14:14;6.90;;;6.20;;
11044;SDS011;9786;42.714;23.272;2024-03-07T10:16:44;7.63;;;5.87;;
11044;SDS011;9786;42.714;23.272;2024-03-07T10:19:14;6.27;;;4.80;;
11044;SDS011;9786;42.714;23.272;2024-03-07T10:21:45;8.20;;;5.23;;
11044;SDS011;9786;42.714;23.272;2024-03-07T10:24:23;6.03;;;5.10;;
11044;SDS011;9786;42.714;23.272;2024-03-07T10:26:53;5.33;;;4.83;;
11044;SDS011;9786;42.714;23.272;2024-03-07T10:29:26;7.83;;;4.90;;
11044;SDS011;9786;42.714;23.272;2024-03-07T10:32:10;4.93;;;4.53;;
11044;SDS011;9786;42.714;23.272;2024-03-07T10:34:41;5.00;;;4.60;;
11044;SDS011;9786;42.714;23.272;2024-03-07T10:37:14;4.60;;;4.20;;
11044;SDS011;9786;42.714;23.272;2024-03-07T10:39:44;5.00;;;4.60;;
11044;SDS011;9786;42.714;23.272;2024-03-07T10:42:14;5.53;;;4.87;;
11044;SDS011;9786;42.714;23.272;2024-03-07T10:44:45;5.40;;;4.90;;
11044;SDS011;9786;42.714;23.272;2024-03-07T10:47:16;5.43;;;4.50;;
11044;SDS011;9786;42.714;23.272;2024-03-07T10:49:49;6.97;;;5.57;;
11044;SDS011;9786;42.714;23.272;2024-03-07T10:52:32;5.30;;;4.80;;
11044;SDS011;9786;42.714;23.272;2024-03-07T10:55:08;4.73;;;4.20;;
11044;SDS011;9786;42.714;23.272;2024-03-07T10:57:50;5.13;;;4.37;;
11044;SDS011;9786;42.714;23.272;2024-03-07T11:00:21;5.10;;;4.40;;
11044;SDS011;9786;42.714;23.272;2024-03-07T11:02:57;4.87;;;4.47;;
11044;SDS011;9786;42.714;23.272;2024-03-07T11:05:26;5.70;;;4.17;;
11044;SDS011;9786;42.714;23.272;2024-03-07T11:08:00;4.83;;;4.43;;
11044;SDS011;9786;42.714;23.272;2024-03-07T11:10:34;4.73;;;4.33;;
11044;SDS011;9786;42.714;23.272;2024-03-07T11:13:04;4.63;;;4.07;;
11044;SDS011;9786;42.714;23.272;2024-03-07T11:15:36;4.10;;;3.80;;
11044;SDS011;9786;42.714;23.272;2024-03-07T11:18:08;5.97;;;3.90;;
11044;SDS011;9786;42.714;23.272;2024-03-07T11:20:44;4.93;;;4.10;;
11044;SDS011;9786;42.714;23.272;2024-03-07T11:23:26;5.17;;;4.67;;
11044;SDS011;9786;42.714;23.272;2024-03-07T11:26:03;7.47;;;4.30;;
11044;SDS011;9786;42.714;23.272;2024-03-07T11:28:37;6.17;;;5.13;;
11044;SDS011;9786;42.714;23.272;2024-03-07T11:31:08;5.77;;;5.27;;
11044;SDS011;9786;42.714;23.272;2024-03-07T11:33:38;8.93;;;5.53;;
11044;SDS011;9786;42.714;23.272;2024-03-07T11:36:09;29.23;;;24.27;;
11044;SDS011;9786;42.714;23.272;2024-03-07T11:38:47;8.03;;;7.10;;
11044;SDS011;9786;42.714;23.272;2024-03-07T11:41:20;7.63;;;6.50;;
11044;SDS011;9786;42.714;23.272;2024-03-07T11:43:52;7.50;;;6.70;;
11044;SDS011;9786;42.714;23.272;2024-03-07T11:46:22;6.00;;;5.20;;
11044;SDS011;9786;42.714;23.272;2024-03-07T11:48:56;8.33;;;6.30;;
11044;SDS011;9786;42.714;23.272;2024-03-07T11:51:26;6.47;;;5.77;;
11044;SDS011;9786;42.714;23.272;2024-03-07T11:54:00;6.80;;;6.07;;
11044;SDS011;9786;42.714;23.272;2024-03-07T11:56:30;5.67;;;5.17;;
11044;SDS011;9786;42.714;23.272;2024-03-07T11:59:00;6.57;;;5.80;;
11044;SDS011;9786;42.714;23.272;2024-03-07T12:01:34;6.20;;;5.57;;
11044;SDS011;9786;42.714;23.272;2024-03-07T12:04:05;5.67;;;5.17;;
11044;SDS011;9786;42.714;23.272;2024-03-07T12:06:34;6.27;;;5.63;;
11044;SDS011;9786;42.714;23.272;2024-03-07T12:09:06;6.23;;;5.70;;
11044;SDS011;9786;42.714;23.272;2024-03-07T12:11:44;6.67;;;5.97;;
11044;SDS011;9786;42.714;23.272;2024-03-07T12:14:14;6.90;;;6.17;;
11044;SDS011;9786;42.714;23.272;2024-03-07T12:16:45;7.40;;;5.80;;
11044;SDS011;9786;42.714;23.272;2024-03-07T12:19:14;6.73;;;6.07;;
11044;SDS011;9786;42.714;23.272;2024-03-07T12:21:47;6.67;;;6.07;;
11044;SDS011;9786;42.714;23.272;2024-03-07T12:24:21;6.60;;;6.00;;
11044;SDS011;9786;42.714;23.272;2024-03-07T12:26:51;6.10;;;5.50;;
11044;SDS011;9786;42.714;23.272;2024-03-07T12:29:25;8.13;;;6.30;;
11044;SDS011;9786;42.714;23.272;2024-03-07T12:31:57;7.57;;;6.87;;
11044;SDS011;9786;42.714;23.272;2024-03-07T12:34:26;6.73;;;6.13;;
11044;SDS011;9786;42.714;23.272;2024-03-07T12:36:58;6.97;;;5.50;;
11044;SDS011;9786;42.714;23.272;2024-03-07T12:39:31;7.87;;;7.07;;
11044;SDS011;9786;42.714;23.272;2024-03-07T12:42:05;6.67;;;6.03;;
11044;SDS011;9786;42.714;23.272;2024-03-07T12:44:40;7.07;;;5.87;;
11044;SDS011;9786;42.714;23.272;2024-03-07T12:47:13;6.27;;;5.67;;
11044;SDS011;9786;42.714;23.272;2024-03-07T12:49:46;5.97;;;5.30;;
11044;SDS011;9786;42.714;23.272;2024-03-07T12:52:16;6.83;;;6.13;;
11044;SDS011;9786;42.714;23.272;2024-03-07T12:54:49;8.00;;;6.60;;
11044;SDS011;9786;42.714;23.272;2024-03-07T12:57:20;7.90;;;7.10;;
11044;SDS011;9786;42.714;23.272;2024-03-07T12:59:51;8.23;;;6.90;;
11044;SDS011;9786;42.714;23.272;2024-03-07T13:02:20;9.17;;;8.27;;
11044;SDS011;9786;42.714;23.272;2024-03-07T13:04:54;8.13;;;7.43;;
11044;SDS011;9786;42.714;23.272;2024-03-07T13:07:25;9.93;;;8.77;;
11044;SDS011;9786;42.714;23.272;2024-03-07T13:10:01;4.60;;;4.00;;
11044;SDS011;9786;42.714;23.272;2024-03-07T13:12:31;3.80;;;3.40;;
11044;SDS011;9786;42.714;23.272;2024-03-07T13:15:01;4.47;;;2.60;;
11044;SDS011;9786;42.714;23.272;2024-03-07T13:17:34;2.47;;;2.07;;
11044;SDS011;9786;42.714;23.272;2024-03-07T13:20:04;2.30;;;2.10;;
11044;SDS011;9786;42.714;23.272;2024-03-07T13:22:39;3.00;;;2.23;;
11044;SDS011;9786;42.714;23.272;2024-03-07T13:25:12;2.73;;;2.30;;
11044;SDS011;9786;42.714;23.272;2024-03-07T13:27:54;4.07;;;2.47;;
11044;SDS011;9786;42.714;23.272;2024-03-07T13:30:27;3.40;;;2.60;;
11044;SDS011;9786;42.714;23.272;2024-03-07T13:32:58;3.97;;;2.57;;
11044;SDS011;9786;42.714;23.272;2024-03-07T13:35:27;4.57;;;3.23;;
11044;SDS011;9786;42.714;23.272;2024-03-07T13:37:58;4.37;;;3.23;;
11044;SDS011;9786;42.714;23.272;2024-03-07T13:40:29;4.67;;;3.90;;
11044;SDS011;9786;42.714;23.272;2024-03-07T13:43:08;5.60;;;4.30;;
11044;SDS011;9786;42.714;23.272;2024-03-07T13:45:38;4.80;;;4.13;;
11044;SDS011;9786;42.714;23.272;2024-03-07T13:48:12;4.37;;;3.97;;
11044;SDS011;9786;42.714;23.272;2024-03-07T13:50:45;5.00;;;4.40;;
11044;SDS011;9786;42.714;23.272;2024-03-07T13:53:26;4.17;;;3.50;;
11044;SDS011;9786;42.714;23.272;2024-03-07T13:59:20;5.13;;;4.63;;
11044;SDS011;9786;42.714;23.272;2024-03-07T14:02:15;6.90;;;6.27;;
11044;SDS011;9786;42.714;23.272;2024-03-07T14:08:06;6.77;;;5.93;;
11044;SDS011;9786;42.714;23.272;2024-03-07T14:11:03;8.20;;;7.37;;
11044;SDS011;9786;42.714;23.272;2024-03-07T14:14:03;7.93;;;6.37;;
11044;SDS011;9786;42.714;23.272;2024-03-07T14:16:55;9.00;;;6.70;;
11044;SDS011;9786;42.714;23.272;2024-03-07T14:20:12;7.97;;;5.70;;
11044;SDS011;9786;42.714;23.272;2024-03-07T14:23:30;8.73;;;6.53;;
11044;SDS011;9786;42.714;23.272;2024-03-07T14:26:34;10.20;;;6.63;;
11044;SDS011;9786;42.714;23.272;2024-03-07T14:29:29;7.03;;;5.67;;
11044;SDS011;9786;42.714;23.272;2024-03-07T14:32:11;10.77;;;6.53;;
11044;SDS011;9786;42.714;23.272;2024-03-07T14:34:47;6.83;;;5.67;;
11044;SDS011;9786;42.714;23.272;2024-03-07T14:37:27;6.47;;;5.77;;
11044;SDS011;9786;42.714;23.272;2024-03-07T14:40:07;7.00;;;6.20;;
11044;SDS011;9786;42.714;23.272;2024-03-07T14:42:39;9.53;;;7.10;;
11044;SDS011;9786;42.714;23.272;2024-03-07T14:45:17;7.97;;;6.23;;
11044;SDS011;9786;42.714;23.272;2024-03-07T14:47:49;8.47;;;7.37;;
11044;SDS011;9786;42.714;23.272;2024-03-07T14:50:20;8.97;;;7.93;;
11044;SDS011;9786;42.714;23.272;2024-03-07T14:52:51;9.07;;;8.00;;
11044;SDS011;9786;42.714;23.272;2024-03-07T14:55:21;9.17;;;7.97;;
11044;SDS011;9786;42.714;23.272;2024-03-07T14:57:50;9.83;;;8.73;;
11044;SDS011;9786;42.714;23.272;2024-03-07T15:00:22;11.70;;;10.13;;
11044;SDS011;9786;42.714;23.272;2024-03-07T15:03:03;12.10;;;10.83;;
11044;SDS011;9786;42.714;23.272;2024-03-07T15:05:34;14.87;;;10.83;;
11044;SDS011;9786;42.714;23.272;2024-03-07T15:08:04;12.30;;;10.80;;
11044;SDS011;9786;42.714;23.272;2024-03-07T15:10:34;11.23;;;10.07;;
11044;SDS011;9786;42.714;23.272;2024-03-07T15:13:05;11.70;;;10.40;;
11044;SDS011;9786;42.714;23.272;2024-03-07T15:15:37;14.17;;;10.40;;